Lang Township, Maine
Current Conditions -  °F | °C
As of 3:52 AM on Wednesday 22 Oct 2014 (Local Time) from KBML Reporting Station
Heavy Rain Heavy Rain  
Wind Chill: 40°   Ceiling: 2100
Heat Index: 44°   Visibility: 4mi
Dew Point: 43°   Wind: 8mph
Humidity: 96%   Direction: 350°N
Pressure: 30.12"   Gusts: NA
Location:  44.9631°N, 70.6504°W
Report Text: KBML 220752Z AUTO 35007KT 4SM +RA BR BKN021 OVC028 07/06 A3012 RMK AO2 SLP208 P0010 T00670061
Loading
Personal Weather Stations






























Interactive Weather Map
Tropical Storm Tracking
New forecast layout! Learn more

10-Day Weather Forecast

Advertisements
Track Severe Weather on mobile